Data for 08/11/2010

Time Sea-Level Adjusted Pressure Absolute Pressure Temperature Relative Humidity Dew Point   
(mb) (inHg) (mb) (inHg) (C) (F) (%) (C) (F)
00:05 1019 30.09 848 25.04 12 53.7 83 9.3 48.8
00:10 1019 30.09 848 25.04 12 53.7 81 8.9 47.9
00:15 1019 30.09 848 25.04 12.5 54.5 80 9.1 48.4
00:20 1019 30.09 848 25.04 12.1 53.7 83 9.3 48.7
00:25 1019 30.09 848 25.04 11.7 53 84 9.2 48.5
00:30 1019 30.09 848 25.04 11.3 52.3 86 9 48.3
00:35 1019 30.09 848 25.04 11.1 51.9 87 9 48.3
00:40 1019 30.09 848 25.04 11.1 51.9 87 8.9 48.1
00:45 1019 30.09 848 25.04 11.2 52.1 87 9 48.3
00:50 1019 30.09 848 25.04 11.3 52.4 86 9.1 48.4
00:55 1019 30.09 848 25.04 11.3 52.4 86 9.1 48.4
01:00 1019 30.09 848 25.04 11.3 52.3 86 9.1 48.4
01:05 1019 30.09 848 25.04 11.1 52.1 87 9.1 48.3
01:10 1018 30.06 848 25.04 11 51.9 88 9.2 48.5
01:15 1018 30.06 848 25.04 11 51.9 88 9.1 48.5
01:20 1018 30.06 847 25.01 11.1 51.9 87 9 48.2
01:25 1018 30.06 847 25.01 11 51.9 88 9.1 48.4
01:30 1018 30.06 847 25.01 11 51.8 88 9.1 48.4
01:35 1018 30.06 847 25.01 11.1 51.9 88 9.1 48.4
01:40 1018 30.06 847 25.01 11 51.8 88 9.1 48.4
01:45 1018 30.06 847 25.01 11 51.8 87 9 48.2
01:50 1018 30.06 847 25.01 11.2 52.1 86 9 48.2
01:55 1018 30.06 847 25.01 11.3 52.3 86 9 48.2
02:00 1018 30.06 847 25.01 11.3 52.4 85 9 48.2
02:05 1018 30.06 847 25.01 11.3 52.4 85 9 48.1
02:10 1017 30.03 847 25.01 11.4 52.5 85 8.9 48
02:15 1017 30.03 846 24.98 11.5 52.8 83 8.7 47.7
02:20 1017 30.03 846 24.98 11.8 53.2 81 8.6 47.5
02:25 1017 30.03 846 24.98 11.9 53.3 80 8.6 47.4
02:30 1017 30.03 846 24.98 12 53.6 79 8.5 47.3
02:35 1017 30.03 846 24.98 12.2 54 78 8.5 47.4
02:40 1017 30.03 846 24.98 12.4 54.3 76 8.4 47.1
02:45 1017 30.03 846 24.98 12.8 55 75 8.5 47.3
02:50 1017 30.03 846 24.98 12.7 54.8 76 8.7 47.6
02:55 1017 30.03 846 24.98 12.2 54 79 8.7 47.6
03:00 1017 30.03 846 24.98 11.9 53.5 78 8.2 46.7
03:05 1017 30.03 846 24.98 12 53.6 77 8.2 46.7
03:10 1017 30.03 846 24.98 12.1 53.7 77 8.2 46.8
03:15 1017 30.03 846 24.98 12.1 53.7 77 8.1 46.6
03:20 1017 30.03 846 24.98 12.2 53.9 76 8.2 46.7
03:25 1017 30.03 846 24.98 12 53.6 78 8.3 46.9
03:30 1017 30.03 847 25.01 11.7 53.1 79 8.1 46.7
03:35 1018 30.06 847 25.01 11.4 52.6 79 7.9 46.3
03:40 1018 30.06 847 25.01 10.8 51.4 82 7.8 46
03:45 1018 30.06 847 25.01 10.4 50.8 83 7.7 45.9
03:50 1018 30.06 847 25.01 10.4 50.7 83 7.7 45.9
03:55 1018 30.06 847 25.01 10.3 50.6 85 7.9 46.3
04:00 1018 30.06 847 25.01 10.4 50.6 89 8.7 47.6
04:05 1018 30.06 847 25.01 10.4 50.6 90 8.8 47.9
04:10 1018 30.06 847 25.01 10.3 50.6 91 8.9 48
04:15 1018 30.06 847 25.01 10.4 50.7 91 8.9 48.1
04:20 1018 30.06 847 25.01 10.5 50.9 90 9 48.1
04:25 1017 30.03 847 25.01 10.5 51 90 9 48.2
04:30 1017 30.03 847 25.01 10.6 51 91 9.1 48.4
04:35 1017 30.03 847 25.01 10.7 51.3 89 9 48.3
04:40 1017 30.03 846 24.98 10.8 51.5 88 9 48.2
04:45 1017 30.03 846 24.98 10.9 51.6 86 8.7 47.7
04:50 1017 30.03 847 25.01 11.1 52 88 9.2 48.5
04:55 1017 30.03 847 25.01 11.1 51.9 90 9.4 48.9
05:00 1017 30.03 846 24.98 11 51.8 89 9.3 48.7
05:05 1017 30.03 846 24.98 11 51.8 89 9.3 48.7
05:10 1017 30.03 846 24.98 10.9 51.5 90 9.3 48.8
05:15 1017 30.03 846 24.98 10.7 51.2 91 9.2 48.6
05:20 1017 30.03 846 24.98 10.7 51.2 91 9.2 48.6
05:25 1017 30.03 846 24.98 10.8 51.4 90 9.2 48.6
05:30 1017 30.03 846 24.98 10.8 51.5 90 9.3 48.7
05:35 1017 30.03 846 24.98 10.8 51.5 90 9.3 48.7
05:40 1017 30.03 846 24.98 10.8 51.5 90 9.2 48.6
05:45 1017 30.03 846 24.98 10.4 50.8 91 9.1 48.4
05:50 1017 30.03 846 24.98 10.3 50.6 91 9 48.1
05:55 1017 30.03 846 24.98 10.4 50.6 91 9 48.1
06:00 1017 30.03 846 24.98 10.4 50.7 91 9 48.1
06:05 1017 30.03 846 24.98 10.4 50.7 91 9 48.2
06:10 1017 30.03 846 24.98 10.3 50.5 92 9.1 48.4
06:15 1016 30 846 24.98 10.3 50.5 92 9.1 48.3
06:20 1016 30 846 24.98 10.3 50.5 92 9.1 48.4
06:25 1017 30.03 846 24.98 10.3 50.6 91 9 48.2
06:30 1017 30.03 846 24.98 10.2 50.4 92 8.9 48.1
06:35 1017 30.03 846 24.98 10.1 50.2 92 8.9 47.9
06:40 1017 30.03 846 24.98 10.1 50.1 92 8.8 47.8
06:45 1017 30.03 846 24.98 10.2 50.3 91 8.7 47.7
06:50 1017 30.03 846 24.98 10.1 50.2 91 8.7 47.6
06:55 1017 30.03 846 24.98 10.2 50.3 90 8.7 47.6
07:00 1017 30.03 846 24.98 10.2 50.4 90 8.6 47.5
07:05 1017 30.03 846 24.98 10.3 50.5 89 8.6 47.5
07:10 1017 30.03 846 24.98 10.6 51 87 8.6 47.4
07:15 1017 30.03 846 24.98 10.7 51.3 86 8.4 47.1
07:20 1017 30.03 846 24.98 10.7 51.2 86 8.4 47.1
07:25 1017 30.03 846 24.98 11.1 51.9 83 8.4 47.1
07:30 1017 30.03 846 24.98 11.7 53 81 8.5 47.3
07:35 1017 30.03 846 24.98 12.3 54.2 78 8.7 47.7
07:40 1017 30.03 846 24.98 12.9 55.3 76 8.8 47.8
07:45 1017 30.03 846 24.98 13.3 55.9 76 9.2 48.5
07:50 1017 30.03 846 24.98 13.4 56.1 76 9.2 48.6
07:55 1017 30.03 846 24.98 13.4 56.2 74 9 48.2
08:00 1017 30.03 846 24.98 13.7 56.7 73 9 48.1
08:05 1017 30.03 846 24.98 13.2 55.8 79 9.8 49.6
08:10 1017 30.03 846 24.98 12.5 54.5 79 9 48.1
08:15 1017 30.03 846 24.98 12.9 55.1 81 9.6 49.4
08:20 1017 30.03 846 24.98 13.1 55.6 77 9.3 48.7
08:25 1017 30.03 846 24.98 14.1 57.3 74 9.5 49.2
08:30 1017 30.03 846 24.98 14.6 58.3 73 9.9 49.9
08:35 1017 30.03 846 24.98 14.1 57.3 75 9.7 49.5
08:40 1017 30.03 846 24.98 13.6 56.4 75 9.2 48.6
08:45 1017 30.03 846 24.98 13.8 56.8 74 9.3 48.8
08:50 1017 30.03 846 24.98 14 57.1 75 9.6 49.2
08:55 1017 30.03 846 24.98 14 57.2 75 9.6 49.4
09:00 1017 30.03 846 24.98 13.9 57 76 9.8 49.6
09:05 1017 30.03 846 24.98 14 57.2 74 9.4 49
09:10 1017 30.03 846 24.98 14.7 58.4 73 9.9 49.9
09:15 1017 30.03 846 24.98 14.9 58.9 71 9.8 49.6
09:20 1017 30.03 846 24.98 14.3 57.7 73 9.5 49.2
09:25 1017 30.03 846 24.98 14.2 57.5 74 9.6 49.2
09:30 1017 30.03 846 24.98 14.6 58.4 71 9.5 49
09:35 1017 30.03 846 24.98 14.9 58.7 73 10 50
09:40 1017 30.03 846 24.98 14.8 58.7 73 10 50
09:45 1017 30.03 846 24.98 14.4 57.9 75 10.2 50.3
09:50 1017 30.03 846 24.98 14.6 58.3 70 9.4 48.8
09:55 1017 30.03 846 24.98 15.4 59.8 68 9.5 49.2
10:00 1017 30.03 846 24.98 15.6 60.1 67 9.6 49.2
10:05 1017 30.03 846 24.98 15.4 59.7 67 9.4 49
10:10 1017 30.03 846 24.98 15.5 59.9 64 8.9 48
10:15 1017 30.03 846 24.98 16.1 61 64 9.4 48.9
10:20 1017 30.03 846 24.98 16 60.8 67 9.8 49.7
10:25 1017 30.03 846 24.98 16.5 61.7 64 9.6 49.3
10:30 1016 30 846 24.98 17.2 63 63 10.3 50.5
10:35 1016 30 846 24.98 17 62.6 61 9.5 49.1
10:40 1016 30 846 24.98 17.1 62.8 62 9.8 49.6
10:45 1016 30 846 24.98 17.4 63.3 60 9.6 49.3
10:50 1016 30 846 24.98 18.1 64.5 58 9.9 49.7
10:55 1016 30 846 24.98 18.5 65.4 56 9.7 49.4
11:00 1016 30 846 24.98 19.1 66.4 56 10.4 50.6
11:05 1016 30 846 24.98 18.2 64.7 59 10.1 50.2
11:10 1016 30 845 24.95 17.9 64.2 59 9.7 49.5
11:15 1016 30 845 24.95 18.3 64.9 58 10.1 50.1
11:20 1016 30 845 24.95 17.5 63.5 61 10.1 50.2
11:25 1016 30 845 24.95 17.8 64.1 58 9.6 49.3
11:30 1016 30 845 24.95 18.5 65.3 57 10 50
11:35 1016 30 845 24.95 19.4 66.9 54 9.9 49.8
11:40 1016 30 845 24.95 18.6 65.5 56 9.8 49.7
11:45 1016 30 845 24.95 18 64.4 56 9.1 48.4
11:50 1016 30 845 24.95 19.4 66.9 53 9.7 49.4
11:55 1016 30 845 24.95 20.1 68.1 53 10.3 50.5
12:00 1016 30 845 24.95 19.2 66.5 53 9.4 48.9
12:05 1016 30 845 24.95 20.3 68.5 50 9.7 49.4
12:10 1016 30 845 24.95 20.7 69.3 50 10.1 50.1
12:15 1016 30 845 24.95 20.6 69.1 50 10 50.1
12:20 1016 30 845 24.95 21.1 70 50 10.5 50.9
12:25 1016 30 845 24.95 20 68.1 54 10.6 51.1
12:30 1016 30 845 24.95 20.4 68.7 50 9.8 49.6
12:35 1016 30 845 24.95 21.2 70.1 48 10 50
12:40 1016 30 845 24.95 21.5 70.6 48 10.2 50.4
12:45 1016 30 845 24.95 21.7 71 49 10.6 51.1
12:50 1016 30 845 24.95 21.5 70.6 46 9.6 49.4
12:55 1016 30 845 24.95 22.1 71.8 46 10 50
13:00 1016 30 845 24.95 22 71.7 46 10.1 50.1
13:05 1016 30 845 24.95 22 71.7 46 10.1 50.2
13:10 1016 30 845 24.95 22 71.7 48 10.6 51
13:15 1016 30 845 24.95 21.8 71.2 47 10 50
13:20 1016 30 845 24.95 21.8 71.2 47 10.2 50.3
13:25 1016 30 845 24.95 21.7 71.1 47 10.1 50.1
13:30 1015 29.97 845 24.95 22.7 72.8 46 10.5 50.9
13:35 1016 30 845 24.95 22.5 72.6 46 10.4 50.7
13:40 1016 30 845 24.95 21.7 71 47 9.9 49.8
13:45 1016 30 845 24.95 22 71.5 43 9.1 48.3
13:50 1016 30 845 24.95 22.4 72.3 43 9.5 49.1
13:55 1016 30 845 24.95 22.5 72.5 42 9.2 48.6
14:00 1016 30 845 24.95 22.4 72.3 43 9.5 49.1
14:05 1015 29.97 845 24.95 22.4 72.3 43 9.4 48.9
14:10 1015 29.97 845 24.95 22.2 72 44 9.6 49.2
14:15 1016 30 845 24.95 22.7 72.8 42 9.1 48.4
14:20 1016 30 845 24.95 22.8 73 42 9.5 49
14:25 1016 30 845 24.95 23.6 74.4 41 9.7 49.5
14:30 1016 30 845 24.95 23.7 74.7 40 9.4 48.9
14:35 1016 30 845 24.95 23.3 74 42 9.8 49.7
14:40 1016 30 845 24.95 23.2 73.8 40 9.2 48.5
14:45 1016 30 845 24.95 22.9 73.2 40 8.8 47.8
14:50 1015 29.97 845 24.95 23.9 75 37 8.4 47.2
14:55 1015 29.97 845 24.95 24 75.3 34 7.4 45.4
15:00 1016 30 845 24.95 24.2 75.5 35 7.9 46.2
15:05 1015 29.97 845 24.95 24 75.2 36 8.3 46.9
15:10 1015 29.97 845 24.95 23.3 73.9 39 8.7 47.7
15:15 1015 29.97 845 24.95 24.3 75.7 37 8.8 47.9
15:20 1015 29.97 845 24.95 24.5 76 35 8.2 46.8
15:25 1016 30 845 24.95 24.9 76.8 35 8.5 47.3
15:30 1015 29.97 844 24.92 24.9 76.9 33 7.9 46.3
15:35 1015 29.97 844 24.92 25.3 77.5 33 8 46.4
15:40 1015 29.97 844 24.92 25.4 77.8 31 7.5 45.4
15:45 1015 29.97 844 24.92 24.9 76.7 33 7.6 45.7
15:50 1015 29.97 844 24.92 25 77.1 32 7.5 45.5
15:55 1015 29.97 844 24.92 25.1 77.1 32 7.4 45.3
16:00 1015 29.97 844 24.92 25.1 77.3 30 6.8 44.2
16:05 1015 29.97 844 24.92 24.4 75.9 31 6.3 43.3
16:10 1015 29.97 844 24.92 24.6 76.2 30 6.1 42.9
16:15 1015 29.97 844 24.92 25.5 78 30 6.9 44.4
16:20 1015 29.97 844 24.92 25.3 77.5 30 6.5 43.8
16:25 1015 29.97 844 24.92 24.6 76.2 30 6.3 43.4
16:30 1015 29.97 844 24.92 25.3 77.6 30 6.9 44.3
16:35 1015 29.97 844 24.92 25.3 77.5 32 7.5 45.6
16:40 1015 29.97 844 24.92 24.5 76 33 7.5 45.4
16:45 1015 29.97 844 24.92 24.4 75.9 33 7.3 45.1
16:50 1015 29.97 844 24.92 24.9 76.8 33 7.6 45.6
16:55 1015 29.97 844 24.92 25.1 77.2 33 7.8 46.1
17:00 1015 29.97 844 24.92 25 76.9 32 7.6 45.6
17:05 1015 29.97 844 24.92 24.8 76.6 33 7.7 45.9
17:10 1015 29.97 844 24.92 25.2 77.3 32 7.5 45.5
17:15 1015 29.97 844 24.92 25.2 77.3 32 7.6 45.7
17:20 1015 29.97 844 24.92 25.1 77.3 31 7.2 45
17:25 1014 29.94 844 24.92 25.5 77.8 31 7.4 45.4
17:30 1014 29.94 844 24.92 25.4 77.8 31 7.4 45.2
17:35 1014 29.94 844 24.92 25.7 78.3 31 7.4 45.3
17:40 1014 29.94 844 24.92 25.4 77.7 32 7.6 45.6
17:45 1014 29.94 844 24.92 24.8 76.7 33 7.5 45.5
17:50 1014 29.94 844 24.92 24.6 76.3 32 6.9 44.3
17:55 1014 29.94 844 24.92 25 77.1 32 7.5 45.5
18:00 1014 29.94 844 24.92 24.7 76.4 33 7.3 45.2
18:05 1014 29.94 844 24.92 24.6 76.3 31 6.8 44.2
18:10 1015 29.97 844 24.92 24.8 76.6 31 7 44.5
18:15 1015 29.97 844 24.92 24.7 76.5 32 7 44.6
18:20 1015 29.97 844 24.92 24.2 75.6 36 8.6 47.4
18:25 1015 29.97 844 24.92 23.5 74.3 34 6.8 44.2
18:30 1015 29.97 844 24.92 22.6 72.7 33 5.9 42.5
18:35 1015 29.97 844 24.92 22.2 71.9 34 5.9 42.7
18:40 1015 29.97 844 24.92 21.9 71.5 32 4.8 40.6
18:45 1015 29.97 845 24.95 21.9 71.4 37 6.6 43.9
18:50 1016 30 845 24.95 21.3 70.3 41 7.6 45.6
18:55 1016 30 845 24.95 19.3 66.7 44 7 44.6
19:00 1016 30 845 24.95 18.9 66 43 6.2 43.1
19:05 1016 30 845 24.95 19.2 66.5 42 6 42.8
19:10 1016 30 845 24.95 19.1 66.4 43 6.2 43.2
19:15 1016 30 845 24.95 18.6 65.4 44 6.2 43.2
19:20 1016 30 845 24.95 18.2 64.8 42 5.4 41.7
19:25 1016 30 845 24.95 18.3 64.9 43 5.5 41.9
19:30 1016 30 845 24.95 18.3 64.9 42 5.4 41.7
19:35 1016 30 845 24.95 18.1 64.5 43 5.3 41.5
19:40 1016 30 845 24.95 18.1 64.5 42 5 41
19:45 1016 30 845 24.95 18.1 64.6 41 4.9 40.9
19:50 1016 30 845 24.95 18.2 64.8 41 5 40.9
19:55 1016 30 845 24.95 18.3 64.9 42 5.2 41.3
20:00 1016 30 845 24.95 18.1 64.5 42 5 41
20:05 1016 30 846 24.98 17.8 64 43 5.2 41.3
20:10 1017 30.03 846 24.98 17.6 63.7 44 5.3 41.5
20:15 1017 30.03 846 24.98 17.7 63.8 44 5.5 41.9
20:20 1017 30.03 846 24.98 17.7 63.8 43 5 41
20:25 1017 30.03 846 24.98 17.7 63.9 42 4.9 40.8
20:30 1017 30.03 846 24.98 17.6 63.7 44 5.2 41.4
20:35 1017 30.03 846 24.98 17.3 63.2 46 5.7 42.2
20:40 1017 30.03 846 24.98 16.8 62.3 48 5.8 42.4
20:45 1017 30.03 846 24.98 16.6 61.9 49 5.8 42.5
20:50 1017 30.03 846 24.98 16.3 61.3 53 6.7 44.1
20:55 1017 30.03 846 24.98 16 60.8 53 6.5 43.6
21:00 1017 30.03 846 24.98 15.9 60.7 54 6.6 43.9
21:05 1017 30.03 846 24.98 15.7 60.3 54 6.6 43.8
21:10 1017 30.03 846 24.98 15.3 59.6 57 7 44.5
21:15 1017 30.03 846 24.98 14.9 58.9 56 6.3 43.4
21:20 1017 30.03 846 24.98 15 59.1 55 6.2 43.2
21:25 1017 30.03 846 24.98 14.9 58.8 58 6.7 44
21:30 1017 30.03 846 24.98 14.6 58.2 57 6.2 43.2
21:35 1017 30.03 846 24.98 14.8 58.6 54 5.7 42.3
21:40 1017 30.03 846 24.98 15.1 59.1 54 5.9 42.5
21:45 1017 30.03 846 24.98 15.2 59.3 54 5.9 42.6
21:50 1017 30.03 846 24.98 15.2 59.4 53 5.9 42.6
21:55 1017 30.03 846 24.98 15.2 59.4 55 6.3 43.4
22:00 1017 30.03 846 24.98 15.1 59.1 56 6.6 43.8
22:05 1017 30.03 846 24.98 14.9 58.8 56 6.4 43.5
22:10 1017 30.03 846 24.98 14.8 58.6 59 6.9 44.3
22:15 1017 30.03 846 24.98 14.7 58.4 57 6.3 43.4
22:20 1017 30.03 846 24.98 14.5 58 59 6.5 43.7
22:25 1017 30.03 846 24.98 14.2 57.5 53 4.7 40.5
22:30 1017 30.03 846 24.98 14.6 58.3 52 4.9 40.9
22:35 1017 30.03 846 24.98 14.7 58.5 52 5 40.9
22:40 1017 30.03 846 24.98 14.6 58.3 52 5 41.1
22:45 1017 30.03 846 24.98 14.2 57.6 56 5.6 42.1
22:50 1017 30.03 846 24.98 13.7 56.6 57 5.4 41.8
22:55 1017 30.03 846 24.98 13.6 56.5 56 5.2 41.3
23:00 1017 30.03 846 24.98 13.8 56.9 55 5 41
23:05 1017 30.03 846 24.98 13.9 57 55 5.1 41.1
23:10 1017 30.03 846 24.98 14 57.2 53 4.6 40.3
23:15 1017 30.03 846 24.98 14.3 57.7 52 4.6 40.3
23:20 1017 30.03 846 24.98 14.5 58.1 54 5.4 41.7
23:25 1017 30.03 846 24.98 14.3 57.8 54 5.4 41.7
23:30 1017 30.03 846 24.98 14.2 57.6 54 5.2 41.3
23:35 1017 30.03 846 24.98 14.1 57.4 57 5.8 42.4
23:40 1017 30.03 846 24.98 13.7 56.7 57 5.4 41.8
23:45 1017 30.03 846 24.98 13.7 56.7 60 6.2 43.1
23:50 1017 30.03 846 24.98 13.4 56.1 61 6.2 43.1
23:55 1017 30.03 846 24.98 13.1 55.6 63 6.4 43.5
24:00 1017 30.03 846 24.98 12.9 55.1 64 6.3 43.4